createdAt,value
2022-12-18T00:01:47.085Z,102488.88
2022-12-18T00:04:23.532Z,102485.66
2022-12-18T00:06:58.444Z,102490.66
2022-12-18T00:09:39.778Z,102499.03
2022-12-18T00:14:48.471Z,102509.94
2022-12-18T00:17:21.854Z,102506.84
2022-12-18T00:19:54.661Z,102505.19
2022-12-18T00:22:28.874Z,102504.53
2022-12-18T00:25:01.617Z,102496.75
2022-12-18T00:27:34.427Z,102503.72
2022-12-18T00:30:08.210Z,102500.28
2022-12-18T00:32:40.985Z,102497.59
2022-12-18T00:35:13.984Z,102487.28
2022-12-18T00:37:48.383Z,102491.69
2022-12-18T00:40:21.192Z,102500.19
2022-12-18T00:42:59.208Z,102501.56
2022-12-18T00:45:33.052Z,102510.59
2022-12-18T00:48:06.507Z,102511.56
2022-12-18T00:50:39.456Z,102506.59
2022-12-18T00:53:13.815Z,102500.56
2022-12-18T00:55:46.984Z,102497.06
2022-12-18T00:58:19.816Z,102503.22
2022-12-18T01:00:52.604Z,102495.16
2022-12-18T01:03:25.694Z,102500.91
2022-12-18T01:05:58.508Z,102492.41
2022-12-18T01:08:32.769Z,102500.19
2022-12-18T01:11:09.734Z,102483.72
2022-12-18T01:13:43.263Z,102490.47
2022-12-18T01:16:17.982Z,102486.28
2022-12-18T01:18:54.639Z,102478.53
2022-12-18T01:21:27.639Z,102487.94
2022-12-18T01:24:01.843Z,102497.63
2022-12-18T01:26:35.735Z,102513.34
2022-12-18T01:29:08.538Z,102500.16
2022-12-18T01:31:41.588Z,102501.84
2022-12-18T01:34:14.404Z,102496.06
2022-12-18T01:36:48.163Z,102460.66
2022-12-18T01:39:22.351Z,102491.00
2022-12-18T01:42:04.901Z,102486.72
2022-12-18T01:45:00.841Z,102487.84
2022-12-18T01:47:40.965Z,102498.31
2022-12-18T01:50:16.729Z,102498.25
2022-12-18T01:52:52.218Z,102497.31
2022-12-18T01:55:30.489Z,102480.84
2022-12-18T01:58:03.381Z,102479.09
2022-12-18T02:00:36.616Z,102481.13
2022-12-18T02:03:09.867Z,102470.59
2022-12-18T02:05:49.181Z,102482.81
2022-12-18T02:08:28.164Z,102483.75
2022-12-18T02:11:09.185Z,102470.75
2022-12-18T02:13:48.535Z,102490.69
2022-12-18T02:16:31.370Z,102481.34
2022-12-18T02:19:10.361Z,102493.50
2022-12-18T02:21:52.266Z,102480.63
2022-12-18T02:24:36.953Z,102494.78
2022-12-18T02:27:12.774Z,102486.50
2022-12-18T02:29:55.986Z,102483.09
2022-12-18T02:32:33.592Z,102483.16
2022-12-18T02:35:09.394Z,102485.72
2022-12-18T02:37:45.481Z,102482.94
2022-12-18T02:40:19.261Z,102484.13
2022-12-18T02:42:53.492Z,102489.03
2022-12-18T02:45:26.629Z,102490.75
2022-12-18T02:47:59.425Z,102478.34
2022-12-18T02:50:37.492Z,102473.72
2022-12-18T02:53:20.032Z,102483.41
2022-12-18T02:56:03.628Z,102490.56
2022-12-18T02:58:49.410Z,102446.81
2022-12-18T03:01:40.548Z,102481.00
2022-12-18T03:04:19.147Z,102469.53
2022-12-18T03:06:57.867Z,102476.22
2022-12-18T03:09:34.975Z,102485.22
2022-12-18T03:12:26.437Z,102468.75
2022-12-18T03:15:17.292Z,102469.50
2022-12-18T03:17:56.749Z,102478.31
2022-12-18T03:20:36.160Z,102479.97
2022-12-18T03:23:13.882Z,102474.94
2022-12-18T03:25:48.363Z,102472.25
2022-12-18T03:28:23.909Z,102457.63
2022-12-18T03:31:07.713Z,102445.34
2022-12-18T03:33:46.221Z,102452.44
2022-12-18T03:36:20.411Z,102452.06
2022-12-18T03:38:53.881Z,102454.78
2022-12-18T03:41:34.670Z,102427.75
2022-12-18T03:44:31.688Z,102441.59
2022-12-18T03:47:10.018Z,102444.28
2022-12-18T03:49:49.633Z,102463.38
2022-12-18T03:52:28.584Z,102460.06
2022-12-18T03:55:04.167Z,102467.91
2022-12-18T03:57:37.830Z,102460.84
2022-12-18T04:00:13.186Z,102461.00
2022-12-18T04:03:03.814Z,102461.53
2022-12-18T04:05:45.418Z,102458.22
2022-12-18T04:08:19.391Z,102452.16
2022-12-18T04:10:59.453Z,102448.84
2022-12-18T04:13:37.380Z,102447.03
2022-12-18T04:16:14.328Z,102443.53
2022-12-18T04:18:50.743Z,102451.13
2022-12-18T04:21:25.778Z,102451.91
2022-12-18T04:23:59.429Z,102456.22
2022-12-18T04:26:32.412Z,102451.78
2022-12-18T04:29:25.509Z,102447.53
2022-12-18T04:31:58.615Z,102456.06
2022-12-18T04:34:34.208Z,102460.16
2022-12-18T04:37:07.029Z,102455.03
2022-12-18T04:39:40.098Z,102457.75
2022-12-18T04:42:19.459Z,102458.50
2022-12-18T04:44:52.243Z,102454.19
2022-12-18T04:47:25.025Z,102461.22
2022-12-18T04:49:59.222Z,102471.63
2022-12-18T04:52:33.180Z,102462.16
2022-12-18T04:55:06.637Z,102438.75
2022-12-18T04:57:39.418Z,102456.06
2022-12-18T05:00:13.572Z,102437.13
2022-12-18T05:02:46.510Z,102447.72
2022-12-18T05:05:20.790Z,102438.34
2022-12-18T05:07:53.523Z,102445.38
2022-12-18T05:10:26.272Z,102443.25
2022-12-18T05:13:02.129Z,102426.44
2022-12-18T05:15:35.741Z,102428.03
2022-12-18T05:18:08.500Z,102428.50
2022-12-18T05:20:42.638Z,102427.28
2022-12-18T05:23:15.428Z,102418.75
2022-12-18T05:25:52.375Z,102425.91
2022-12-18T05:28:26.500Z,102435.63
2022-12-18T05:31:01.225Z,102435.84
2022-12-18T05:33:35.004Z,102427.81
2022-12-18T05:36:12.138Z,102432.84
2022-12-18T05:38:44.979Z,102430.22
2022-12-18T05:41:17.990Z,102426.78
2022-12-18T05:43:50.750Z,102426.75
2022-12-18T05:46:23.696Z,102429.50
2022-12-18T05:48:56.463Z,102442.44
2022-12-18T05:51:30.564Z,102446.69
2022-12-18T05:54:03.356Z,102444.16
2022-12-18T05:56:36.666Z,102451.06
2022-12-18T05:59:09.696Z,102444.91
2022-12-18T06:01:42.549Z,102448.50
2022-12-18T06:04:15.609Z,102459.50
2022-12-18T06:06:49.839Z,102452.63
2022-12-18T06:09:22.573Z,102463.75
2022-12-18T06:11:55.440Z,102463.75
2022-12-18T06:14:28.343Z,102468.22
2022-12-18T06:17:01.225Z,102488.09
2022-12-18T06:19:34.043Z,102481.34
2022-12-18T06:22:08.129Z,102480.66
2022-12-18T06:24:40.898Z,102491.75
2022-12-18T06:27:14.454Z,102484.13
2022-12-18T06:29:47.523Z,102483.09
2022-12-18T06:32:20.284Z,102490.06
2022-12-18T06:34:53.972Z,102490.00
2022-12-18T06:37:28.241Z,102471.63
2022-12-18T06:40:01.850Z,102480.63
2022-12-18T06:42:34.616Z,102485.69
2022-12-18T06:45:08.379Z,102484.75
2022-12-18T06:47:41.131Z,102481.25
2022-12-18T06:50:14.975Z,102476.00
2022-12-18T06:52:49.143Z,102469.09
2022-12-18T06:55:21.880Z,102462.06
2022-12-18T06:57:54.939Z,102471.94
2022-12-18T07:00:27.743Z,102461.31
2022-12-18T07:03:00.534Z,102447.06
2022-12-18T07:05:33.254Z,102453.34
2022-12-18T07:08:07.530Z,102453.41
2022-12-18T07:10:46.966Z,102449.56
2022-12-18T07:13:21.052Z,102446.13
2022-12-18T07:15:53.768Z,102454.72
2022-12-18T07:18:26.486Z,102443.38
2022-12-18T07:20:59.251Z,102440.78
2022-12-18T07:23:34.473Z,102439.16
2022-12-18T07:26:09.622Z,102440.91
2022-12-18T07:28:44.655Z,102440.00
2022-12-18T07:31:20.021Z,102442.84
2022-12-18T07:33:54.864Z,102436.97
2022-12-18T07:36:27.734Z,102445.66
2022-12-18T07:39:01.970Z,102437.00
2022-12-18T07:41:35.088Z,102438.88
2022-12-18T07:44:15.384Z,102431.09
2022-12-18T07:46:48.154Z,102437.31
2022-12-18T07:49:21.139Z,102439.75
2022-12-18T07:51:56.993Z,102438.09
2022-12-18T07:54:31.111Z,102442.47
2022-12-18T07:57:03.877Z,102454.63
2022-12-18T07:59:37.092Z,102454.34
2022-12-18T08:02:10.646Z,102451.66
2022-12-18T08:04:45.262Z,102451.25
2022-12-18T08:07:18.098Z,102437.00
2022-12-18T08:09:52.183Z,102436.47
2022-12-18T08:12:24.958Z,102441.03
2022-12-18T08:14:57.770Z,102436.03
2022-12-18T08:17:30.493Z,102437.81
2022-12-18T08:20:03.791Z,102434.41
2022-12-18T08:22:37.349Z,102436.41
2022-12-18T08:25:11.855Z,102433.03
2022-12-18T08:27:44.566Z,102422.88
2022-12-18T08:30:17.645Z,102402.28
2022-12-18T08:32:53.621Z,102390.22
2022-12-18T08:35:26.424Z,102353.66
2022-12-18T08:37:59.160Z,102369.00
2022-12-18T08:40:33.252Z,102395.50
2022-12-18T08:43:23.813Z,102384.63
2022-12-18T08:45:57.344Z,102377.91
2022-12-18T08:48:30.185Z,102385.34
2022-12-18T08:51:03.185Z,102382.00
2022-12-18T08:53:36.122Z,102380.19
2022-12-18T08:56:10.672Z,102354.75
2022-12-18T08:58:43.944Z,102397.44
2022-12-18T09:01:16.899Z,102404.66
2022-12-18T09:03:50.135Z,102390.38
2022-12-18T09:06:24.669Z,102377.69
2022-12-18T09:08:59.078Z,102377.91
2022-12-18T09:11:34.815Z,102374.56
2022-12-18T09:14:07.942Z,102375.72
2022-12-18T09:16:40.903Z,102360.34
2022-12-18T09:19:13.630Z,102361.25
2022-12-18T09:21:48.381Z,102357.75
2022-12-18T09:24:24.985Z,102350.69
2022-12-18T09:26:59.673Z,102357.69
2022-12-18T09:29:32.631Z,102362.94
2022-12-18T09:32:07.988Z,102366.53
2022-12-18T09:34:40.756Z,102369.19
2022-12-18T09:37:13.544Z,102353.84
2022-12-18T09:39:46.337Z,102357.34
2022-12-18T09:42:24.562Z,102363.81
2022-12-18T09:44:58.072Z,102364.69
2022-12-18T09:47:37.451Z,102355.31
2022-12-18T09:50:25.333Z,102361.34
2022-12-18T09:53:04.278Z,102352.91
2022-12-18T09:55:41.299Z,102353.97
2022-12-18T09:58:32.860Z,102355.94
2022-12-18T10:01:12.113Z,102342.19
2022-12-18T10:03:45.043Z,102356.28
2022-12-18T10:06:23.419Z,102357.22
2022-12-18T10:09:03.991Z,102332.91
2022-12-18T10:11:45.751Z,102326.94
2022-12-18T10:14:25.078Z,102349.66
2022-12-18T10:17:04.725Z,102335.78
2022-12-18T10:19:50.083Z,102332.44
2022-12-18T10:22:46.078Z,102320.19
2022-12-18T10:25:24.778Z,102309.78
2022-12-18T10:28:02.175Z,102312.44
2022-12-18T10:30:36.288Z,102306.38
2022-12-18T10:33:14.226Z,102287.19
2022-12-18T10:35:52.441Z,102288.97
2022-12-18T10:38:28.039Z,102279.44
2022-12-18T10:41:03.244Z,102275.13
2022-12-18T10:43:37.434Z,102268.22
2022-12-18T10:46:21.649Z,102255.22
2022-12-18T10:48:57.050Z,102278.66
2022-12-18T10:51:32.347Z,102271.72
2022-12-18T10:54:07.398Z,102269.16
2022-12-18T10:56:40.420Z,102263.94
2022-12-18T10:59:15.482Z,102265.66
2022-12-18T11:01:52.667Z,102268.25
2022-12-18T11:04:27.807Z,102234.31
2022-12-18T11:07:01.789Z,102253.44
2022-12-18T11:09:36.280Z,102243.81
2022-12-18T11:12:19.249Z,102233.34
2022-12-18T11:14:54.430Z,102218.59
2022-12-18T11:17:34.401Z,102228.97
2022-12-18T11:20:21.494Z,102235.06
2022-12-18T11:22:59.369Z,102223.66
2022-12-18T11:25:35.118Z,102219.34
2022-12-18T11:28:28.375Z,102218.41
2022-12-18T11:31:18.839Z,102213.16
2022-12-18T11:34:29.140Z,102218.41
2022-12-18T11:37:05.473Z,102213.09
2022-12-18T11:39:43.040Z,102189.56
2022-12-18T11:42:24.902Z,102192.19
2022-12-18T11:45:02.921Z,102173.94
2022-12-18T11:47:43.636Z,102177.38
2022-12-18T11:50:20.687Z,102172.13
2022-12-18T11:52:58.237Z,102154.75
2022-12-18T11:55:42.582Z,102165.97
2022-12-18T11:58:31.710Z,102175.44
2022-12-18T12:01:17.418Z,102163.19
2022-12-18T12:04:19.279Z,102156.97
2022-12-18T12:07:04.710Z,102170.94
2022-12-18T12:09:49.105Z,102152.56
2022-12-18T12:12:48.659Z,102148.97
2022-12-18T12:15:41.231Z,102145.38
2022-12-18T12:18:25.013Z,102145.44
2022-12-18T12:21:05.069Z,102152.34
2022-12-18T12:23:47.372Z,102152.31
2022-12-18T12:26:29.494Z,102129.59
2022-12-18T12:29:16.622Z,102132.25
2022-12-18T12:32:06.597Z,102113.94
2022-12-18T12:34:48.538Z,102118.09
2022-12-18T12:37:32.094Z,102112.06
2022-12-18T12:40:26.923Z,102108.66
2022-12-18T12:43:16.614Z,102111.13
2022-12-18T12:45:55.645Z,102100.59
2022-12-18T12:48:40.189Z,102106.59
2022-12-18T12:51:19.056Z,102094.28
2022-12-18T12:53:55.698Z,102082.19
2022-12-18T12:56:40.641Z,102089.28
2022-12-18T12:59:21.106Z,102103.06
2022-12-18T13:02:00.274Z,102111.72
2022-12-18T13:04:38.379Z,102090.88
2022-12-18T13:07:18.314Z,102102.97
2022-12-18T13:10:28.732Z,102086.41
2022-12-18T13:13:04.221Z,102083.81
2022-12-18T13:15:41.670Z,102080.25
2022-12-18T13:18:21.460Z,102076.78
2022-12-18T13:21:07.037Z,102089.69
2022-12-18T13:23:41.246Z,102083.63
2022-12-18T13:26:33.205Z,102084.47
2022-12-18T13:29:08.689Z,102073.09
2022-12-18T13:32:20.942Z,102074.81
2022-12-18T13:35:32.644Z,102078.28
2022-12-18T13:38:23.493Z,102074.88
2022-12-18T13:40:58.775Z,102075.66
2022-12-18T13:43:35.671Z,102074.81
2022-12-18T13:46:21.154Z,102066.13
2022-12-18T13:48:57.632Z,102066.06
2022-12-18T13:51:34.263Z,102066.16
2022-12-18T13:54:18.639Z,102074.75
2022-12-18T13:56:52.253Z,102060.94
2022-12-18T13:59:27.107Z,102074.88
2022-12-18T14:02:04.312Z,102064.38
2022-12-18T14:04:38.214Z,102063.56
2022-12-18T14:07:15.807Z,102053.09
2022-12-18T14:09:58.136Z,102041.84
2022-12-18T14:12:54.736Z,102032.25
2022-12-18T14:15:34.217Z,102034.00
2022-12-18T14:18:23.055Z,102026.13
2022-12-18T14:20:59.452Z,102023.50
2022-12-18T14:23:35.687Z,102019.94
2022-12-18T14:26:24.740Z,102008.72
2022-12-18T14:28:58.303Z,102014.78
2022-12-18T14:31:33.211Z,102003.44
2022-12-18T14:34:07.299Z,101996.53
2022-12-18T14:36:40.859Z,101993.97
2022-12-18T14:39:19.323Z,101996.53
2022-12-18T14:41:52.333Z,101980.84
2022-12-18T14:44:25.344Z,101986.09
2022-12-18T14:46:58.709Z,101987.81
2022-12-18T14:49:35.089Z,101984.28
2022-12-18T14:52:19.624Z,101977.31
2022-12-18T14:54:54.236Z,101969.53
2022-12-18T14:57:36.869Z,101974.72
2022-12-18T15:00:19.303Z,101977.25
2022-12-18T15:02:55.178Z,101977.38
2022-12-18T15:05:31.375Z,101975.50
2022-12-18T15:08:04.430Z,101962.53
2022-12-18T15:10:49.118Z,101965.16
2022-12-18T15:13:25.299Z,101976.38
2022-12-18T15:16:03.764Z,101978.13
2022-12-18T15:18:44.096Z,101973.75
2022-12-18T15:21:20.902Z,101965.09
2022-12-18T15:23:55.174Z,101961.56
2022-12-18T15:26:39.161Z,101951.22
2022-12-18T15:29:21.828Z,101951.22
2022-12-18T15:32:02.171Z,101929.59
2022-12-18T15:34:36.006Z,101943.31
2022-12-18T15:37:10.525Z,101939.81
2022-12-18T15:39:43.700Z,101925.94
2022-12-18T15:42:34.637Z,101928.47
2022-12-18T15:45:10.471Z,101924.13
2022-12-18T15:47:43.857Z,101933.69
2022-12-18T15:50:17.103Z,101921.50
2022-12-18T15:52:54.021Z,101911.91
2022-12-18T15:55:44.641Z,101918.94
2022-12-18T15:58:17.626Z,101916.25
2022-12-18T16:00:50.625Z,101922.28
2022-12-18T16:03:23.428Z,101929.28
2022-12-18T16:05:59.353Z,101926.63
2022-12-18T16:08:34.585Z,101924.94
2022-12-18T16:11:07.933Z,101920.63
2022-12-18T16:13:41.097Z,101926.72
2022-12-18T16:16:14.042Z,101920.59
2022-12-18T16:18:46.866Z,101916.25
2022-12-18T16:21:19.686Z,101920.56
2022-12-18T16:23:54.194Z,101915.38
2022-12-18T16:26:27.780Z,101905.94
2022-12-18T16:29:01.018Z,101910.09
2022-12-18T16:31:33.816Z,101909.25
2022-12-18T16:34:14.895Z,101914.47
2022-12-18T16:36:48.304Z,101910.09
2022-12-18T16:39:22.728Z,101910.13
2022-12-18T16:41:56.999Z,101903.16
2022-12-18T16:44:31.024Z,101907.50
2022-12-18T16:47:03.815Z,101911.78
2022-12-18T16:49:38.326Z,101923.09
2022-12-18T16:52:11.249Z,101910.81
2022-12-18T16:54:45.429Z,101912.59
2022-12-18T16:57:20.382Z,101910.81
2022-12-18T16:59:56.036Z,101898.75
2022-12-18T17:02:30.875Z,101903.09
2022-12-18T17:05:04.134Z,101900.44
2022-12-18T17:07:37.028Z,101881.38
2022-12-18T17:10:11.931Z,101889.06
2022-12-18T17:12:44.761Z,101885.59
2022-12-18T17:15:17.605Z,101875.88
2022-12-18T17:17:51.595Z,101868.78
2022-12-18T17:20:24.471Z,101851.44
2022-12-18T17:22:57.293Z,101860.97
2022-12-18T17:25:32.614Z,101852.19
2022-12-18T17:28:06.141Z,101853.00
2022-12-18T17:30:39.180Z,101846.88
2022-12-18T17:33:13.047Z,101840.78
2022-12-18T17:35:47.076Z,101848.63
2022-12-18T17:38:21.361Z,101853.84
2022-12-18T17:40:55.592Z,101851.16
2022-12-18T17:43:28.654Z,101841.69
2022-12-18T17:46:03.557Z,101852.97
2022-12-18T17:48:36.672Z,101858.19
2022-12-18T17:51:13.079Z,101853.88
2022-12-18T17:53:46.138Z,101858.13
2022-12-18T17:56:23.819Z,101861.56
2022-12-18T17:58:56.792Z,101853.75
2022-12-18T18:01:29.732Z,101861.56
2022-12-18T18:04:02.656Z,101851.16
2022-12-18T18:06:35.632Z,101869.16
2022-12-18T18:09:16.427Z,101860.56
2022-12-18T18:12:08.574Z,101860.47
2022-12-18T18:14:41.627Z,101850.91
2022-12-18T18:17:15.136Z,101846.59
2022-12-18T18:19:49.808Z,101840.31
2022-12-18T18:22:31.012Z,101850.81
2022-12-18T18:25:04.616Z,101856.03
2022-12-18T18:27:41.685Z,101852.38
2022-12-18T18:30:15.196Z,101842.66
2022-12-18T18:32:47.979Z,101850.44
2022-12-18T18:35:52.305Z,101852.97
2022-12-18T18:38:14.712Z,101857.31
2022-12-18T18:40:47.667Z,101855.69
2022-12-18T18:43:24.682Z,101857.41
2022-12-18T18:45:59.116Z,101854.69
2022-12-18T18:48:35.585Z,101863.38
2022-12-18T18:51:14.701Z,101865.09
2022-12-18T18:53:54.859Z,101850.44
2022-12-18T18:56:56.238Z,101864.28
2022-12-18T18:59:23.068Z,101870.25
2022-12-18T19:02:05.023Z,101867.59
2022-12-18T19:04:45.108Z,101871.00
2022-12-18T19:07:29.463Z,101867.41
2022-12-18T19:10:05.600Z,101873.25
2022-12-18T19:12:56.450Z,101881.94
2022-12-18T19:15:30.951Z,101853.03
2022-12-18T19:18:03.952Z,101867.88
2022-12-18T19:20:37.150Z,101860.00
2022-12-18T19:23:10.014Z,101856.50
2022-12-18T19:25:43.190Z,101868.59
2022-12-18T19:28:21.835Z,101865.06
2022-12-18T19:31:00.322Z,101870.25
2022-12-18T19:33:44.080Z,101866.72
2022-12-18T19:36:21.151Z,101865.75
2022-12-18T19:38:57.144Z,101860.47
2022-12-18T19:41:32.827Z,101832.59
2022-12-18T19:44:07.671Z,101836.19
2022-12-18T19:46:43.120Z,101848.91
2022-12-18T19:49:18.230Z,101841.13
2022-12-18T19:51:54.588Z,101834.16
2022-12-18T19:54:27.406Z,101824.50
2022-12-18T19:57:00.251Z,101843.59
2022-12-18T19:59:33.075Z,101830.47
2022-12-18T20:02:07.745Z,101835.59
2022-12-18T20:04:41.114Z,101839.81
2022-12-18T20:07:14.033Z,101827.72
2022-12-18T20:09:47.057Z,101830.34
2022-12-18T20:12:21.061Z,101817.41
2022-12-18T20:14:53.955Z,101836.50
2022-12-18T20:17:28.496Z,101840.72
2022-12-18T20:20:02.372Z,101836.28
2022-12-18T20:22:36.089Z,101837.09
2022-12-18T20:25:10.349Z,101832.75
2022-12-18T20:27:43.162Z,101830.06
2022-12-18T20:30:16.697Z,101823.16
2022-12-18T20:32:51.213Z,101824.13
2022-12-18T20:35:27.988Z,101826.63
2022-12-18T20:38:02.210Z,101821.38
2022-12-18T20:40:36.341Z,101832.69
2022-12-18T20:43:12.481Z,101838.59
2022-12-18T20:45:49.698Z,101837.59
2022-12-18T20:48:26.722Z,101837.72
2022-12-18T20:51:01.357Z,101828.03
2022-12-18T20:53:37.497Z,101837.56
2022-12-18T20:56:20.117Z,101835.84
2022-12-18T20:58:58.043Z,101832.09
2022-12-18T21:01:32.023Z,101839.28
2022-12-18T21:04:06.248Z,101840.13
2022-12-18T21:06:39.213Z,101838.28
2022-12-18T21:09:11.971Z,101840.88
2022-12-18T21:12:02.257Z,101841.03
2022-12-18T21:14:35.062Z,101832.19
2022-12-18T21:17:08.145Z,101842.59
2022-12-18T21:19:42.545Z,101830.47
2022-12-18T21:22:17.219Z,101837.44
2022-12-18T21:24:50.236Z,101840.06
2022-12-18T21:27:23.141Z,101834.91
2022-12-18T21:29:56.351Z,101851.38
2022-12-18T21:32:33.462Z,101842.91
2022-12-18T21:35:08.956Z,101849.66
2022-12-18T21:37:41.853Z,101839.28
2022-12-18T21:40:14.945Z,101841.03
2022-12-18T21:43:05.224Z,101832.25
2022-12-18T21:45:38.426Z,101832.25
2022-12-18T21:48:12.948Z,101828.72
2022-12-18T21:50:47.418Z,101836.56
2022-12-18T21:53:20.207Z,101843.50
2022-12-18T21:55:59.024Z,101836.47
2022-12-18T21:58:31.981Z,101826.97
2022-12-18T22:01:05.101Z,101821.66
2022-12-18T22:03:38.008Z,101817.22
2022-12-18T22:06:12.979Z,101806.00
2022-12-18T22:08:46.005Z,101818.19
2022-12-18T22:11:19.370Z,101819.88
2022-12-18T22:13:54.244Z,101811.09
2022-12-18T22:16:27.073Z,101807.53
2022-12-18T22:19:00.423Z,101795.41
2022-12-18T22:21:39.599Z,101810.97
2022-12-18T22:24:15.327Z,101804.88
2022-12-18T22:26:49.789Z,101801.34
2022-12-18T22:29:42.754Z,101788.19
2022-12-18T22:32:17.817Z,101779.47
2022-12-18T22:35:12.780Z,101771.66
2022-12-18T22:37:49.663Z,101780.22
2022-12-18T22:40:25.376Z,101773.25
2022-12-18T22:42:59.315Z,101780.19
2022-12-18T22:45:32.158Z,101777.59
2022-12-18T22:48:07.166Z,101772.28
2022-12-18T22:50:40.188Z,101758.31
2022-12-18T22:53:14.293Z,101757.53
2022-12-18T22:55:47.035Z,101753.00
2022-12-18T22:58:19.798Z,101756.44
2022-12-18T23:00:52.592Z,101745.94
2022-12-18T23:03:25.567Z,101740.69
2022-12-18T23:06:04.420Z,101758.16
2022-12-18T23:08:38.645Z,101759.81
2022-12-18T23:11:12.500Z,101746.75
2022-12-18T23:13:45.682Z,101742.50
2022-12-18T23:16:20.624Z,101744.13
2022-12-18T23:18:55.116Z,101744.06
2022-12-18T23:21:27.926Z,101734.41
2022-12-18T23:24:03.261Z,101727.38
2022-12-18T23:26:36.342Z,101723.91
2022-12-18T23:29:09.342Z,101711.78
2022-12-18T23:31:42.549Z,101704.59
2022-12-18T23:34:16.805Z,101714.16
2022-12-18T23:36:53.247Z,101709.72
2022-12-18T23:39:30.520Z,101701.84
2022-12-18T23:42:03.356Z,101700.03
2022-12-18T23:44:36.081Z,101692.13
2022-12-18T23:47:08.883Z,101681.66
2022-12-18T23:49:41.789Z,101686.81
2022-12-18T23:52:14.807Z,101670.25
2022-12-18T23:54:49.228Z,101665.84
2022-12-18T23:57:22.027Z,101662.25
2022-12-18T23:59:57.872Z,101643.16
